LGTS/SKG METAR and TAF weather

Enter ICAO airport designator
Station Type Date Time Source
LGTS METAR 2019/04/18 22:20 UTC NOAA

LGTS 182220Z VRB03KT 9999 FEW025 10/09 Q1024 NOSIG


Station Type Date Time Source
LGTS Decoded METAR 2019/04/18 22:20 UTC NOAA

Thessaloniki Airport , Greece (LGTS) 40-31N 022-58E 4M
Apr 18, 2019 - 06:20 PM EDT / 2019.04.18 2220 UTC
Wind: Variable at 3 MPH (3 KT):0
Visibility: greater than 7 mile(s):0
Sky conditions: mostly clear
Temperature: 50 F (10 C)
Dew Point: 48 F (9 C)
Relative Humidity: 93%
Pressure (altimeter): 30.24 in. Hg (1024 hPa)
ob: LGTS 182220Z VRB03KT 9999 FEW025 10/09 Q1024 NOSIG
cycle: 22

Station Type Date Time Source
LGTS TAF 2019/04/18 18:12 UTC NOAA

TAF TAF LGTS 181700Z 1818/1918 VRB03KT 9999 FEW020TCU SCT030 PROB30
TEMPO 1818/1904 7000 SHRA PROB30
TEMPO 1910/1918 4000 TSRA FEW015CB BKN025
BECMG 1912/1914 16015KT

Example: see airport list